sensor_id;sensor_type;location;lat;lon;timestamp;temperature;humidity
16136;DHT22;8173;48.354;9.248;2022-10-16T00:01:39;12.10;99.90
16136;DHT22;8173;48.354;9.248;2022-10-16T00:04:05;12.10;99.90
16136;DHT22;8173;48.354;9.248;2022-10-16T00:06:32;12.10;99.90
16136;DHT22;8173;48.354;9.248;2022-10-16T00:11:29;12.10;99.90
16136;DHT22;8173;48.354;9.248;2022-10-16T00:14:00;12.00;99.90
16136;DHT22;8173;48.354;9.248;2022-10-16T00:16:27;11.90;99.90
16136;DHT22;8173;48.354;9.248;2022-10-16T00:18:56;11.90;99.90
16136;DHT22;8173;48.354;9.248;2022-10-16T00:21:25;11.90;99.90
16136;DHT22;8173;48.354;9.248;2022-10-16T00:23:52;11.90;99.90
16136;DHT22;8173;48.354;9.248;2022-10-16T00:28:47;11.90;99.90
16136;DHT22;8173;48.354;9.248;2022-10-16T00:31:14;11.90;99.90
16136;DHT22;8173;48.354;9.248;2022-10-16T00:33:40;11.90;99.90
16136;DHT22;8173;48.354;9.248;2022-10-16T00:36:12;12.00;99.90
16136;DHT22;8173;48.354;9.248;2022-10-16T00:38:39;11.90;99.90
16136;DHT22;8173;48.354;9.248;2022-10-16T00:41:07;11.90;99.90
16136;DHT22;8173;48.354;9.248;2022-10-16T00:43:37;11.90;99.90
16136;DHT22;8173;48.354;9.248;2022-10-16T00:46:10;11.80;99.90
16136;DHT22;8173;48.354;9.248;2022-10-16T00:48:38;11.80;99.90
16136;DHT22;8173;48.354;9.248;2022-10-16T00:51:08;11.80;99.90
16136;DHT22;8173;48.354;9.248;2022-10-16T00:53:35;11.80;99.90
16136;DHT22;8173;48.354;9.248;2022-10-16T00:56:03;11.80;99.90
16136;DHT22;8173;48.354;9.248;2022-10-16T00:58:30;11.80;99.90
16136;DHT22;8173;48.354;9.248;2022-10-16T01:00:57;11.80;99.90
16136;DHT22;8173;48.354;9.248;2022-10-16T01:03:26;11.80;99.90
16136;DHT22;8173;48.354;9.248;2022-10-16T01:06:00;11.70;99.90
16136;DHT22;8173;48.354;9.248;2022-10-16T01:08:36;11.80;99.90
16136;DHT22;8173;48.354;9.248;2022-10-16T01:11:11;11.80;99.90
16136;DHT22;8173;48.354;9.248;2022-10-16T01:13:47;11.80;99.90
16136;DHT22;8173;48.354;9.248;2022-10-16T01:16:20;11.70;99.90
16136;DHT22;8173;48.354;9.248;2022-10-16T01:18:53;11.70;99.90
16136;DHT22;8173;48.354;9.248;2022-10-16T01:21:24;11.70;99.90
16136;DHT22;8173;48.354;9.248;2022-10-16T01:24:02;11.70;99.90
16136;DHT22;8173;48.354;9.248;2022-10-16T01:26:38;11.90;99.90
16136;DHT22;8173;48.354;9.248;2022-10-16T01:29:09;11.70;99.90
16136;DHT22;8173;48.354;9.248;2022-10-16T01:31:41;11.70;99.90
16136;DHT22;8173;48.354;9.248;2022-10-16T01:34:14;11.70;99.90
16136;DHT22;8173;48.354;9.248;2022-10-16T01:36:46;11.70;99.90
16136;DHT22;8173;48.354;9.248;2022-10-16T01:39:14;11.70;99.90
16136;DHT22;8173;48.354;9.248;2022-10-16T01:41:48;11.60;99.90
16136;DHT22;8173;48.354;9.248;2022-10-16T01:44:20;11.80;99.90
16136;DHT22;8173;48.354;9.248;2022-10-16T01:46:50;11.80;99.90
16136;DHT22;8173;48.354;9.248;2022-10-16T01:49:19;11.70;99.90
16136;DHT22;8173;48.354;9.248;2022-10-16T01:51:49;11.70;99.90
16136;DHT22;8173;48.354;9.248;2022-10-16T01:54:20;11.80;99.90
16136;DHT22;8173;48.354;9.248;2022-10-16T01:56:50;11.80;99.90
16136;DHT22;8173;48.354;9.248;2022-10-16T01:59:20;11.80;99.90
16136;DHT22;8173;48.354;9.248;2022-10-16T02:01:51;11.90;99.90
16136;DHT22;8173;48.354;9.248;2022-10-16T02:04:23;12.10;99.90
16136;DHT22;8173;48.354;9.248;2022-10-16T02:06:52;11.90;99.90
16136;DHT22;8173;48.354;9.248;2022-10-16T02:09:19;11.90;99.90
16136;DHT22;8173;48.354;9.248;2022-10-16T02:11:46;11.90;99.90
16136;DHT22;8173;48.354;9.248;2022-10-16T02:14:14;11.80;99.90
16136;DHT22;8173;48.354;9.248;2022-10-16T02:16:44;11.90;99.90
16136;DHT22;8173;48.354;9.248;2022-10-16T02:19:12;11.90;99.90
16136;DHT22;8173;48.354;9.248;2022-10-16T02:21:44;11.90;99.90
16136;DHT22;8173;48.354;9.248;2022-10-16T02:24:17;12.00;99.90
16136;DHT22;8173;48.354;9.248;2022-10-16T02:26:50;12.00;99.90
16136;DHT22;8173;48.354;9.248;2022-10-16T02:29:21;12.00;99.90
16136;DHT22;8173;48.354;9.248;2022-10-16T02:31:54;12.00;99.90
16136;DHT22;8173;48.354;9.248;2022-10-16T02:34:24;11.90;99.90
16136;DHT22;8173;48.354;9.248;2022-10-16T02:36:52;11.90;99.90
16136;DHT22;8173;48.354;9.248;2022-10-16T02:39:20;13.70;99.90
16136;DHT22;8173;48.354;9.248;2022-10-16T02:41:47;12.00;99.90
16136;DHT22;8173;48.354;9.248;2022-10-16T02:44:14;12.00;99.90
16136;DHT22;8173;48.354;9.248;2022-10-16T02:46:41;11.90;99.90
16136;DHT22;8173;48.354;9.248;2022-10-16T02:49:09;11.90;99.90
16136;DHT22;8173;48.354;9.248;2022-10-16T02:51:36;11.90;99.90
16136;DHT22;8173;48.354;9.248;2022-10-16T02:54:03;11.90;99.90
16136;DHT22;8173;48.354;9.248;2022-10-16T02:56:29;11.90;99.90
16136;DHT22;8173;48.354;9.248;2022-10-16T02:58:56;11.90;99.90
16136;DHT22;8173;48.354;9.248;2022-10-16T03:01:23;11.90;99.90
16136;DHT22;8173;48.354;9.248;2022-10-16T03:03:50;11.90;99.90
16136;DHT22;8173;48.354;9.248;2022-10-16T03:06:18;11.80;99.90
16136;DHT22;8173;48.354;9.248;2022-10-16T03:08:45;11.80;99.90
16136;DHT22;8173;48.354;9.248;2022-10-16T03:11:11;11.70;99.90
16136;DHT22;8173;48.354;9.248;2022-10-16T03:13:38;11.70;99.90
16136;DHT22;8173;48.354;9.248;2022-10-16T03:16:05;11.80;99.90
16136;DHT22;8173;48.354;9.248;2022-10-16T03:18:32;11.80;99.90
16136;DHT22;8173;48.354;9.248;2022-10-16T03:20:58;11.80;99.90
16136;DHT22;8173;48.354;9.248;2022-10-16T03:23:27;11.80;99.90
16136;DHT22;8173;48.354;9.248;2022-10-16T03:25:54;11.90;99.90
16136;DHT22;8173;48.354;9.248;2022-10-16T03:28:21;11.90;99.90
16136;DHT22;8173;48.354;9.248;2022-10-16T03:30:47;11.80;99.90
16136;DHT22;8173;48.354;9.248;2022-10-16T03:33:14;11.90;99.90
16136;DHT22;8173;48.354;9.248;2022-10-16T03:35:41;12.00;99.90
16136;DHT22;8173;48.354;9.248;2022-10-16T03:38:07;11.90;99.90
16136;DHT22;8173;48.354;9.248;2022-10-16T03:40:35;11.80;99.90
16136;DHT22;8173;48.354;9.248;2022-10-16T03:43:02;11.90;99.90
16136;DHT22;8173;48.354;9.248;2022-10-16T03:45:29;11.90;99.90
16136;DHT22;8173;48.354;9.248;2022-10-16T03:47:55;11.90;99.90
16136;DHT22;8173;48.354;9.248;2022-10-16T03:50:22;11.90;99.90
16136;DHT22;8173;48.354;9.248;2022-10-16T03:52:49;12.00;99.90
16136;DHT22;8173;48.354;9.248;2022-10-16T03:55:16;11.90;99.90
16136;DHT22;8173;48.354;9.248;2022-10-16T03:57:44;11.90;99.90
16136;DHT22;8173;48.354;9.248;2022-10-16T04:00:11;11.90;99.90
16136;DHT22;8173;48.354;9.248;2022-10-16T04:02:38;12.00;99.90
16136;DHT22;8173;48.354;9.248;2022-10-16T04:05:06;11.90;99.90
16136;DHT22;8173;48.354;9.248;2022-10-16T04:07:33;11.90;99.90
16136;DHT22;8173;48.354;9.248;2022-10-16T04:10:00;12.00;99.90
16136;DHT22;8173;48.354;9.248;2022-10-16T04:12:27;11.90;99.90
16136;DHT22;8173;48.354;9.248;2022-10-16T04:14:55;11.90;99.90
16136;DHT22;8173;48.354;9.248;2022-10-16T04:17:22;11.90;99.90
16136;DHT22;8173;48.354;9.248;2022-10-16T04:19:48;11.90;99.90
16136;DHT22;8173;48.354;9.248;2022-10-16T04:22:15;11.90;99.90
16136;DHT22;8173;48.354;9.248;2022-10-16T04:24:42;11.80;99.90
16136;DHT22;8173;48.354;9.248;2022-10-16T04:27:08;11.80;99.90
16136;DHT22;8173;48.354;9.248;2022-10-16T04:29:35;11.90;99.90
16136;DHT22;8173;48.354;9.248;2022-10-16T04:32:03;11.80;99.90
16136;DHT22;8173;48.354;9.248;2022-10-16T04:34:30;11.80;99.90
16136;DHT22;8173;48.354;9.248;2022-10-16T04:36:57;11.80;99.90
16136;DHT22;8173;48.354;9.248;2022-10-16T04:39:23;11.80;99.90
16136;DHT22;8173;48.354;9.248;2022-10-16T04:41:50;11.80;99.90
16136;DHT22;8173;48.354;9.248;2022-10-16T04:44:17;11.80;99.90
16136;DHT22;8173;48.354;9.248;2022-10-16T04:46:44;11.80;99.90
16136;DHT22;8173;48.354;9.248;2022-10-16T04:49:12;11.90;99.90
16136;DHT22;8173;48.354;9.248;2022-10-16T04:51:38;11.80;99.90
16136;DHT22;8173;48.354;9.248;2022-10-16T04:54:05;11.80;99.90
16136;DHT22;8173;48.354;9.248;2022-10-16T04:56:32;11.70;99.90
16136;DHT22;8173;48.354;9.248;2022-10-16T04:59:05;11.80;99.90
16136;DHT22;8173;48.354;9.248;2022-10-16T05:01:32;11.70;99.90
16136;DHT22;8173;48.354;9.248;2022-10-16T05:03:58;11.70;99.90
16136;DHT22;8173;48.354;9.248;2022-10-16T05:06:26;11.60;99.90
16136;DHT22;8173;48.354;9.248;2022-10-16T05:08:53;11.70;99.90
16136;DHT22;8173;48.354;9.248;2022-10-16T05:11:20;11.70;99.90
16136;DHT22;8173;48.354;9.248;2022-10-16T05:13:47;11.80;99.90
16136;DHT22;8173;48.354;9.248;2022-10-16T05:16:14;11.90;99.90
16136;DHT22;8173;48.354;9.248;2022-10-16T05:18:41;12.00;99.90
16136;DHT22;8173;48.354;9.248;2022-10-16T05:21:08;12.10;99.90
16136;DHT22;8173;48.354;9.248;2022-10-16T05:23:36;12.00;99.90
16136;DHT22;8173;48.354;9.248;2022-10-16T05:26:03;12.20;99.90
16136;DHT22;8173;48.354;9.248;2022-10-16T05:28:30;12.00;99.90
16136;DHT22;8173;48.354;9.248;2022-10-16T05:30:57;12.00;99.90
16136;DHT22;8173;48.354;9.248;2022-10-16T05:33:25;11.90;99.90
16136;DHT22;8173;48.354;9.248;2022-10-16T05:35:52;11.90;99.90
16136;DHT22;8173;48.354;9.248;2022-10-16T05:38:19;11.80;99.90
16136;DHT22;8173;48.354;9.248;2022-10-16T05:40:52;11.80;99.90
16136;DHT22;8173;48.354;9.248;2022-10-16T05:43:19;11.70;99.90
16136;DHT22;8173;48.354;9.248;2022-10-16T05:45:54;11.70;99.90
16136;DHT22;8173;48.354;9.248;2022-10-16T05:48:21;11.60;99.90
16136;DHT22;8173;48.354;9.248;2022-10-16T05:50:47;11.60;99.90
16136;DHT22;8173;48.354;9.248;2022-10-16T05:53:14;11.70;99.90
16136;DHT22;8173;48.354;9.248;2022-10-16T05:55:41;11.60;99.90
16136;DHT22;8173;48.354;9.248;2022-10-16T05:58:09;11.60;99.90
16136;DHT22;8173;48.354;9.248;2022-10-16T06:00:36;11.70;99.90
16136;DHT22;8173;48.354;9.248;2022-10-16T06:03:02;11.70;99.90
16136;DHT22;8173;48.354;9.248;2022-10-16T06:05:32;11.80;99.90
16136;DHT22;8173;48.354;9.248;2022-10-16T06:07:58;11.90;99.90
16136;DHT22;8173;48.354;9.248;2022-10-16T06:10:25;11.90;99.90
16136;DHT22;8173;48.354;9.248;2022-10-16T06:12:52;11.90;99.90
16136;DHT22;8173;48.354;9.248;2022-10-16T06:15:20;11.90;99.90
16136;DHT22;8173;48.354;9.248;2022-10-16T06:17:47;12.00;99.90
16136;DHT22;8173;48.354;9.248;2022-10-16T06:20:13;12.00;99.90
16136;DHT22;8173;48.354;9.248;2022-10-16T06:22:40;12.10;99.90
16136;DHT22;8173;48.354;9.248;2022-10-16T06:25:07;12.10;99.90
16136;DHT22;8173;48.354;9.248;2022-10-16T06:27:34;12.20;99.90
16136;DHT22;8173;48.354;9.248;2022-10-16T06:30:00;12.20;99.90
16136;DHT22;8173;48.354;9.248;2022-10-16T06:32:30;12.10;99.90
16136;DHT22;8173;48.354;9.248;2022-10-16T06:34:57;12.10;99.90
16136;DHT22;8173;48.354;9.248;2022-10-16T06:37:23;12.10;99.90
16136;DHT22;8173;48.354;9.248;2022-10-16T06:39:50;12.20;99.90
16136;DHT22;8173;48.354;9.248;2022-10-16T06:42:17;12.30;99.90
16136;DHT22;8173;48.354;9.248;2022-10-16T06:44:44;12.40;99.90
16136;DHT22;8173;48.354;9.248;2022-10-16T06:47:11;12.50;99.90
16136;DHT22;8173;48.354;9.248;2022-10-16T06:49:39;12.60;99.90
16136;DHT22;8173;48.354;9.248;2022-10-16T06:52:06;12.60;99.90
16136;DHT22;8173;48.354;9.248;2022-10-16T06:54:33;12.70;99.90
16136;DHT22;8173;48.354;9.248;2022-10-16T06:57:00;12.70;99.90
16136;DHT22;8173;48.354;9.248;2022-10-16T06:59:27;12.70;99.90
16136;DHT22;8173;48.354;9.248;2022-10-16T07:01:53;12.70;99.90
16136;DHT22;8173;48.354;9.248;2022-10-16T07:04:20;12.80;99.90
16136;DHT22;8173;48.354;9.248;2022-10-16T07:06:48;13.10;99.90
16136;DHT22;8173;48.354;9.248;2022-10-16T07:09:16;12.90;99.90
16136;DHT22;8173;48.354;9.248;2022-10-16T07:11:43;12.90;99.90
16136;DHT22;8173;48.354;9.248;2022-10-16T07:14:15;13.00;99.90
16136;DHT22;8173;48.354;9.248;2022-10-16T07:16:42;13.10;99.90
16136;DHT22;8173;48.354;9.248;2022-10-16T07:19:09;13.10;99.90
16136;DHT22;8173;48.354;9.248;2022-10-16T07:21:37;13.00;99.90
16136;DHT22;8173;48.354;9.248;2022-10-16T07:24:10;13.10;99.90
16136;DHT22;8173;48.354;9.248;2022-10-16T07:26:38;13.10;99.90
16136;DHT22;8173;48.354;9.248;2022-10-16T07:29:05;13.10;99.90
16136;DHT22;8173;48.354;9.248;2022-10-16T07:31:31;13.10;99.90
16136;DHT22;8173;48.354;9.248;2022-10-16T07:36:26;13.20;99.90
16136;DHT22;8173;48.354;9.248;2022-10-16T07:38:53;13.20;99.90
16136;DHT22;8173;48.354;9.248;2022-10-16T07:41:21;13.30;99.90
16136;DHT22;8173;48.354;9.248;2022-10-16T07:46:16;13.30;99.90
16136;DHT22;8173;48.354;9.248;2022-10-16T07:48:43;13.40;99.90
16136;DHT22;8173;48.354;9.248;2022-10-16T07:51:14;13.30;99.90
16136;DHT22;8173;48.354;9.248;2022-10-16T07:53:41;13.40;99.90
16136;DHT22;8173;48.354;9.248;2022-10-16T07:56:08;13.40;99.90
16136;DHT22;8173;48.354;9.248;2022-10-16T08:01:05;13.60;99.90
16136;DHT22;8173;48.354;9.248;2022-10-16T08:03:32;13.60;99.90
16136;DHT22;8173;48.354;9.248;2022-10-16T08:05:59;13.70;99.90
16136;DHT22;8173;48.354;9.248;2022-10-16T08:08:27;13.80;99.90
16136;DHT22;8173;48.354;9.248;2022-10-16T08:10:54;13.80;99.90
16136;DHT22;8173;48.354;9.248;2022-10-16T08:13:21;13.90;99.90
16136;DHT22;8173;48.354;9.248;2022-10-16T08:15:49;14.00;99.90
16136;DHT22;8173;48.354;9.248;2022-10-16T08:20:43;14.20;99.90
16136;DHT22;8173;48.354;9.248;2022-10-16T08:23:11;14.20;99.90
16136;DHT22;8173;48.354;9.248;2022-10-16T08:25:38;14.10;99.90
16136;DHT22;8173;48.354;9.248;2022-10-16T08:28:07;15.40;99.90
16136;DHT22;8173;48.354;9.248;2022-10-16T08:33:03;14.20;99.90
16136;DHT22;8173;48.354;9.248;2022-10-16T08:35:29;14.30;99.90
16136;DHT22;8173;48.354;9.248;2022-10-16T08:37:56;14.50;99.90
16136;DHT22;8173;48.354;9.248;2022-10-16T08:40:25;14.40;99.90
16136;DHT22;8173;48.354;9.248;2022-10-16T08:43:01;14.60;99.90
16136;DHT22;8173;48.354;9.248;2022-10-16T08:45:38;14.60;99.90
16136;DHT22;8173;48.354;9.248;2022-10-16T08:48:20;14.70;99.90
16136;DHT22;8173;48.354;9.248;2022-10-16T08:50:50;14.70;99.90
16136;DHT22;8173;48.354;9.248;2022-10-16T08:53:20;14.70;99.90
16136;DHT22;8173;48.354;9.248;2022-10-16T08:55:51;14.70;99.90
16136;DHT22;8173;48.354;9.248;2022-10-16T08:58:20;15.00;99.90
16136;DHT22;8173;48.354;9.248;2022-10-16T09:00:50;14.90;99.90
16136;DHT22;8173;48.354;9.248;2022-10-16T09:03:30;15.10;99.90
16136;DHT22;8173;48.354;9.248;2022-10-16T09:06:10;15.20;99.90
16136;DHT22;8173;48.354;9.248;2022-10-16T09:08:49;15.30;99.90
16136;DHT22;8173;48.354;9.248;2022-10-16T09:11:23;15.50;99.90
16136;DHT22;8173;48.354;9.248;2022-10-16T09:14:00;15.50;99.90
16136;DHT22;8173;48.354;9.248;2022-10-16T09:16:32;15.60;99.90
16136;DHT22;8173;48.354;9.248;2022-10-16T09:19:09;15.50;99.90
16136;DHT22;8173;48.354;9.248;2022-10-16T09:21:40;15.60;99.90
16136;DHT22;8173;48.354;9.248;2022-10-16T09:24:12;15.50;99.90
16136;DHT22;8173;48.354;9.248;2022-10-16T09:26:40;15.60;99.90
16136;DHT22;8173;48.354;9.248;2022-10-16T09:29:09;16.50;99.90
16136;DHT22;8173;48.354;9.248;2022-10-16T09:34:08;15.80;99.90
16136;DHT22;8173;48.354;9.248;2022-10-16T09:36:44;15.80;99.90
16136;DHT22;8173;48.354;9.248;2022-10-16T09:41:42;15.90;99.90
16136;DHT22;8173;48.354;9.248;2022-10-16T09:44:19;15.80;99.90
16136;DHT22;8173;48.354;9.248;2022-10-16T09:46:47;15.90;99.90
16136;DHT22;8173;48.354;9.248;2022-10-16T09:49:22;16.10;99.90
16136;DHT22;8173;48.354;9.248;2022-10-16T09:51:50;16.30;99.90
16136;DHT22;8173;48.354;9.248;2022-10-16T09:54:20;16.50;99.90
16136;DHT22;8173;48.354;9.248;2022-10-16T09:56:48;16.50;99.90
16136;DHT22;8173;48.354;9.248;2022-10-16T09:59:18;16.60;99.90
16136;DHT22;8173;48.354;9.248;2022-10-16T10:01:47;16.60;99.90
16136;DHT22;8173;48.354;9.248;2022-10-16T10:04:14;16.60;99.90
16136;DHT22;8173;48.354;9.248;2022-10-16T10:06:44;16.50;99.90
16136;DHT22;8173;48.354;9.248;2022-10-16T10:09:17;16.40;99.90
16136;DHT22;8173;48.354;9.248;2022-10-16T10:11:49;16.70;99.90
16136;DHT22;8173;48.354;9.248;2022-10-16T10:14:25;16.30;99.90
16136;DHT22;8173;48.354;9.248;2022-10-16T10:17:01;16.20;99.90
16136;DHT22;8173;48.354;9.248;2022-10-16T10:19:28;16.10;99.90
16136;DHT22;8173;48.354;9.248;2022-10-16T10:21:56;16.10;99.90
16136;DHT22;8173;48.354;9.248;2022-10-16T10:26:54;16.20;99.90
16136;DHT22;8173;48.354;9.248;2022-10-16T10:29:31;16.10;99.90
16136;DHT22;8173;48.354;9.248;2022-10-16T10:32:09;16.20;99.90
16136;DHT22;8173;48.354;9.248;2022-10-16T10:35:07;16.30;99.90
16136;DHT22;8173;48.354;9.248;2022-10-16T10:40:40;16.50;99.90
16136;DHT22;8173;48.354;9.248;2022-10-16T10:43:18;16.60;99.90
16136;DHT22;8173;48.354;9.248;2022-10-16T10:45:50;16.60;99.90
16136;DHT22;8173;48.354;9.248;2022-10-16T10:48:32;17.30;99.90
16136;DHT22;8173;48.354;9.248;2022-10-16T10:51:10;17.30;99.90
16136;DHT22;8173;48.354;9.248;2022-10-16T10:53:46;18.30;99.90
16136;DHT22;8173;48.354;9.248;2022-10-16T10:56:22;19.30;99.90
16136;DHT22;8173;48.354;9.248;2022-10-16T10:59:09;19.30;99.90
16136;DHT22;8173;48.354;9.248;2022-10-16T11:01:44;19.60;99.90
16136;DHT22;8173;48.354;9.248;2022-10-16T11:07:19;20.00;99.90
16136;DHT22;8173;48.354;9.248;2022-10-16T11:09:51;20.20;99.90
16136;DHT22;8173;48.354;9.248;2022-10-16T11:12:21;20.30;99.90
16136;DHT22;8173;48.354;9.248;2022-10-16T11:14:56;20.40;99.90
16136;DHT22;8173;48.354;9.248;2022-10-16T11:17:28;20.80;99.90
16136;DHT22;8173;48.354;9.248;2022-10-16T11:20:00;20.90;99.90
16136;DHT22;8173;48.354;9.248;2022-10-16T11:22:33;21.00;99.90
16136;DHT22;8173;48.354;9.248;2022-10-16T11:25:06;21.00;99.90
16136;DHT22;8173;48.354;9.248;2022-10-16T11:27:40;21.10;99.90
16136;DHT22;8173;48.354;9.248;2022-10-16T11:30:14;20.90;99.90
16136;DHT22;8173;48.354;9.248;2022-10-16T11:32:54;21.00;99.90
16136;DHT22;8173;48.354;9.248;2022-10-16T11:35:25;21.10;99.90
16136;DHT22;8173;48.354;9.248;2022-10-16T11:37:55;21.10;99.90
16136;DHT22;8173;48.354;9.248;2022-10-16T11:40:28;21.00;99.90
16136;DHT22;8173;48.354;9.248;2022-10-16T11:42:59;21.20;99.90
16136;DHT22;8173;48.354;9.248;2022-10-16T11:45:33;21.40;99.90
16136;DHT22;8173;48.354;9.248;2022-10-16T11:48:08;21.00;99.90
16136;DHT22;8173;48.354;9.248;2022-10-16T11:50:45;21.50;99.90
16136;DHT22;8173;48.354;9.248;2022-10-16T11:53:21;20.40;99.90
16136;DHT22;8173;48.354;9.248;2022-10-16T11:55:50;20.30;99.90
16136;DHT22;8173;48.354;9.248;2022-10-16T11:58:24;20.30;99.90
16136;DHT22;8173;48.354;9.248;2022-10-16T12:00:58;20.20;99.90
16136;DHT22;8173;48.354;9.248;2022-10-16T12:03:29;20.10;99.90
16136;DHT22;8173;48.354;9.248;2022-10-16T12:06:16;20.20;99.90
16136;DHT22;8173;48.354;9.248;2022-10-16T12:08:46;20.80;99.90
16136;DHT22;8173;48.354;9.248;2022-10-16T12:11:24;21.50;99.90
16136;DHT22;8173;48.354;9.248;2022-10-16T12:14:05;21.50;99.90
16136;DHT22;8173;48.354;9.248;2022-10-16T12:16:33;21.90;99.90
16136;DHT22;8173;48.354;9.248;2022-10-16T12:19:11;22.30;99.90
16136;DHT22;8173;48.354;9.248;2022-10-16T12:21:38;22.40;99.90
16136;DHT22;8173;48.354;9.248;2022-10-16T12:24:06;22.50;99.90
16136;DHT22;8173;48.354;9.248;2022-10-16T12:26:37;22.60;99.90
16136;DHT22;8173;48.354;9.248;2022-10-16T12:29:14;22.60;99.90
16136;DHT22;8173;48.354;9.248;2022-10-16T12:31:46;22.70;99.90
16136;DHT22;8173;48.354;9.248;2022-10-16T12:34:21;23.00;99.90
16136;DHT22;8173;48.354;9.248;2022-10-16T12:36:49;23.00;99.90
16136;DHT22;8173;48.354;9.248;2022-10-16T12:39:21;23.00;99.90
16136;DHT22;8173;48.354;9.248;2022-10-16T12:42:00;22.90;99.90
16136;DHT22;8173;48.354;9.248;2022-10-16T12:44:32;22.90;99.90
16136;DHT22;8173;48.354;9.248;2022-10-16T12:49:32;23.00;99.90
16136;DHT22;8173;48.354;9.248;2022-10-16T12:52:02;23.00;99.90
16136;DHT22;8173;48.354;9.248;2022-10-16T12:54:30;23.00;99.90
16136;DHT22;8173;48.354;9.248;2022-10-16T12:57:08;23.00;99.90
16136;DHT22;8173;48.354;9.248;2022-10-16T12:59:43;23.10;99.90
16136;DHT22;8173;48.354;9.248;2022-10-16T13:02:48;23.10;99.90
16136;DHT22;8173;48.354;9.248;2022-10-16T13:05:30;23.10;99.90
16136;DHT22;8173;48.354;9.248;2022-10-16T13:08:09;23.40;99.90
16136;DHT22;8173;48.354;9.248;2022-10-16T13:10:42;23.70;99.90
16136;DHT22;8173;48.354;9.248;2022-10-16T13:13:33;23.90;99.90
16136;DHT22;8173;48.354;9.248;2022-10-16T13:16:13;23.80;99.90
16136;DHT22;8173;48.354;9.248;2022-10-16T13:18:53;23.50;99.90
16136;DHT22;8173;48.354;9.248;2022-10-16T13:21:34;23.30;99.90
16136;DHT22;8173;48.354;9.248;2022-10-16T13:24:12;22.70;99.90
16136;DHT22;8173;48.354;9.248;2022-10-16T13:26:46;22.10;99.90
16136;DHT22;8173;48.354;9.248;2022-10-16T13:29:18;21.40;99.90
16136;DHT22;8173;48.354;9.248;2022-10-16T13:31:46;21.40;99.90
16136;DHT22;8173;48.354;9.248;2022-10-16T13:34:15;21.20;99.90
16136;DHT22;8173;48.354;9.248;2022-10-16T13:36:45;21.30;99.90
16136;DHT22;8173;48.354;9.248;2022-10-16T13:39:14;21.20;99.90
16136;DHT22;8173;48.354;9.248;2022-10-16T13:41:43;21.20;99.90
16136;DHT22;8173;48.354;9.248;2022-10-16T13:44:15;21.10;99.90
16136;DHT22;8173;48.354;9.248;2022-10-16T13:46:45;21.10;99.90
16136;DHT22;8173;48.354;9.248;2022-10-16T13:49:14;21.50;99.90
16136;DHT22;8173;48.354;9.248;2022-10-16T13:51:41;21.50;99.90
16136;DHT22;8173;48.354;9.248;2022-10-16T13:54:09;21.60;99.90
16136;DHT22;8173;48.354;9.248;2022-10-16T13:56:39;21.80;99.90
16136;DHT22;8173;48.354;9.248;2022-10-16T13:59:24;22.20;99.90
16136;DHT22;8173;48.354;9.248;2022-10-16T14:01:54;22.10;99.90
16136;DHT22;8173;48.354;9.248;2022-10-16T14:04:22;21.90;99.90
16136;DHT22;8173;48.354;9.248;2022-10-16T14:06:50;21.50;99.90
16136;DHT22;8173;48.354;9.248;2022-10-16T14:09:22;21.30;99.90
16136;DHT22;8173;48.354;9.248;2022-10-16T14:11:52;21.20;99.90
16136;DHT22;8173;48.354;9.248;2022-10-16T14:14:20;21.10;99.90
16136;DHT22;8173;48.354;9.248;2022-10-16T14:16:47;21.20;99.90
16136;DHT22;8173;48.354;9.248;2022-10-16T14:19:20;21.20;99.90
16136;DHT22;8173;48.354;9.248;2022-10-16T14:21:48;21.20;99.90
16136;DHT22;8173;48.354;9.248;2022-10-16T14:24:25;21.30;99.90
16136;DHT22;8173;48.354;9.248;2022-10-16T14:29:22;21.30;99.90
16136;DHT22;8173;48.354;9.248;2022-10-16T14:31:57;21.20;99.90
16136;DHT22;8173;48.354;9.248;2022-10-16T14:34:29;20.90;99.90
16136;DHT22;8173;48.354;9.248;2022-10-16T14:36:59;20.40;99.90
16136;DHT22;8173;48.354;9.248;2022-10-16T14:41:57;20.10;99.90
16136;DHT22;8173;48.354;9.248;2022-10-16T14:44:28;19.80;99.90
16136;DHT22;8173;48.354;9.248;2022-10-16T14:46:55;19.70;99.90
16136;DHT22;8173;48.354;9.248;2022-10-16T14:49:23;19.60;99.90
16136;DHT22;8173;48.354;9.248;2022-10-16T14:51:51;19.60;99.90
16136;DHT22;8173;48.354;9.248;2022-10-16T14:56:48;19.50;99.90
16136;DHT22;8173;48.354;9.248;2022-10-16T14:59:19;19.40;99.90
16136;DHT22;8173;48.354;9.248;2022-10-16T15:01:46;19.40;99.90
16136;DHT22;8173;48.354;9.248;2022-10-16T15:04:14;19.30;99.90
16136;DHT22;8173;48.354;9.248;2022-10-16T15:06:41;19.30;99.90
16136;DHT22;8173;48.354;9.248;2022-10-16T15:11:36;19.10;99.90
16136;DHT22;8173;48.354;9.248;2022-10-16T15:14:04;19.00;99.90
16136;DHT22;8173;48.354;9.248;2022-10-16T15:16:31;18.90;99.90
16136;DHT22;8173;48.354;9.248;2022-10-16T15:18:58;18.80;99.90
16136;DHT22;8173;48.354;9.248;2022-10-16T15:21:27;18.70;99.90
16136;DHT22;8173;48.354;9.248;2022-10-16T15:23:54;18.70;99.90
16136;DHT22;8173;48.354;9.248;2022-10-16T15:33:45;18.60;99.90
16136;DHT22;8173;48.354;9.248;2022-10-16T15:36:23;18.60;99.90
16136;DHT22;8173;48.354;9.248;2022-10-16T15:38:50;18.60;99.90
16136;DHT22;8173;48.354;9.248;2022-10-16T15:43:47;18.40;99.90
16136;DHT22;8173;48.354;9.248;2022-10-16T15:46:15;18.70;99.90
16136;DHT22;8173;48.354;9.248;2022-10-16T15:48:43;18.30;99.90
16136;DHT22;8173;48.354;9.248;2022-10-16T15:51:10;18.20;99.90
16136;DHT22;8173;48.354;9.248;2022-10-16T15:53:36;18.20;99.90
16136;DHT22;8173;48.354;9.248;2022-10-16T15:56:03;18.10;99.90
16136;DHT22;8173;48.354;9.248;2022-10-16T15:58:31;18.10;99.90
16136;DHT22;8173;48.354;9.248;2022-10-16T16:01:00;18.00;99.90
16136;DHT22;8173;48.354;9.248;2022-10-16T16:03:27;17.90;99.90
16136;DHT22;8173;48.354;9.248;2022-10-16T16:08:21;17.80;99.90
16136;DHT22;8173;48.354;9.248;2022-10-16T16:10:57;17.70;99.90
16136;DHT22;8173;48.354;9.248;2022-10-16T16:13:24;17.60;99.90
16136;DHT22;8173;48.354;9.248;2022-10-16T16:18:19;17.40;99.90
16136;DHT22;8173;48.354;9.248;2022-10-16T16:25:41;17.00;99.90
16136;DHT22;8173;48.354;9.248;2022-10-16T16:28:08;20.00;99.90
16136;DHT22;8173;48.354;9.248;2022-10-16T16:30:36;16.70;99.90
16136;DHT22;8173;48.354;9.248;2022-10-16T16:33:03;16.70;99.90
16136;DHT22;8173;48.354;9.248;2022-10-16T16:37:58;16.60;99.90
16136;DHT22;8173;48.354;9.248;2022-10-16T16:42:52;16.60;99.90
16136;DHT22;8173;48.354;9.248;2022-10-16T16:47:46;16.30;99.90
16136;DHT22;8173;48.354;9.248;2022-10-16T16:50:12;16.10;99.90
16136;DHT22;8173;48.354;9.248;2022-10-16T16:55:08;15.80;99.90
16136;DHT22;8173;48.354;9.248;2022-10-16T16:57:35;15.60;99.90
16136;DHT22;8173;48.354;9.248;2022-10-16T17:07:23;15.80;99.90
16136;DHT22;8173;48.354;9.248;2022-10-16T17:14:46;15.20;99.90
16136;DHT22;8173;48.354;9.248;2022-10-16T17:17:13;15.00;99.90
16136;DHT22;8173;48.354;9.248;2022-10-16T17:24:34;14.70;99.90
16136;DHT22;8173;48.354;9.248;2022-10-16T17:27:02;14.50;99.90
16136;DHT22;8173;48.354;9.248;2022-10-16T17:29:29;14.50;99.90
16136;DHT22;8173;48.354;9.248;2022-10-16T17:31:55;14.40;99.90